sensor_id;sensor_type;location;lat;lon;timestamp;temperature;humidity
19567;DHT22;9930;49.240;8.548;2022-08-19T00:02:08;25.30;58.30
19567;DHT22;9930;49.240;8.548;2022-08-19T00:04:38;25.30;58.30
19567;DHT22;9930;49.240;8.548;2022-08-19T00:07:08;25.30;58.30
19567;DHT22;9930;49.240;8.548;2022-08-19T00:09:38;25.30;58.30
19567;DHT22;9930;49.240;8.548;2022-08-19T00:12:08;25.30;58.40
19567;DHT22;9930;49.240;8.548;2022-08-19T00:14:38;25.30;58.30
19567;DHT22;9930;49.240;8.548;2022-08-19T00:17:08;25.20;58.30
19567;DHT22;9930;49.240;8.548;2022-08-19T00:19:38;25.20;58.50
19567;DHT22;9930;49.240;8.548;2022-08-19T00:22:08;25.20;58.50
19567;DHT22;9930;49.240;8.548;2022-08-19T00:24:38;25.20;58.50
19567;DHT22;9930;49.240;8.548;2022-08-19T00:27:08;25.20;58.60
19567;DHT22;9930;49.240;8.548;2022-08-19T00:29:38;25.20;58.60
19567;DHT22;9930;49.240;8.548;2022-08-19T00:32:08;25.20;58.60
19567;DHT22;9930;49.240;8.548;2022-08-19T00:34:38;25.20;58.50
19567;DHT22;9930;49.240;8.548;2022-08-19T00:37:08;25.20;58.60
19567;DHT22;9930;49.240;8.548;2022-08-19T00:39:42;25.20;58.60
19567;DHT22;9930;49.240;8.548;2022-08-19T00:42:10;25.20;58.60
19567;DHT22;9930;49.240;8.548;2022-08-19T00:44:41;25.10;58.60
19567;DHT22;9930;49.240;8.548;2022-08-19T00:47:08;25.10;58.60
19567;DHT22;9930;49.240;8.548;2022-08-19T00:49:41;25.10;58.70
19567;DHT22;9930;49.240;8.548;2022-08-19T00:52:23;25.10;58.80
19567;DHT22;9930;49.240;8.548;2022-08-19T00:54:55;25.10;58.80
19567;DHT22;9930;49.240;8.548;2022-08-19T00:57:32;25.10;58.80
19567;DHT22;9930;49.240;8.548;2022-08-19T01:00:09;25.10;58.80
19567;DHT22;9930;49.240;8.548;2022-08-19T01:02:39;25.10;58.80
19567;DHT22;9930;49.240;8.548;2022-08-19T01:05:13;25.10;58.80
19567;DHT22;9930;49.240;8.548;2022-08-19T01:07:44;25.10;58.80
19567;DHT22;9930;49.240;8.548;2022-08-19T01:10:19;25.10;58.80
19567;DHT22;9930;49.240;8.548;2022-08-19T01:12:49;25.10;58.90
19567;DHT22;9930;49.240;8.548;2022-08-19T01:15:29;25.10;58.90
19567;DHT22;9930;49.240;8.548;2022-08-19T01:18:08;25.10;59.00
19567;DHT22;9930;49.240;8.548;2022-08-19T01:20:39;25.10;58.90
19567;DHT22;9930;49.240;8.548;2022-08-19T01:23:08;25.10;58.90
19567;DHT22;9930;49.240;8.548;2022-08-19T01:25:49;25.10;59.00
19567;DHT22;9930;49.240;8.548;2022-08-19T01:28:23;25.00;59.00
19567;DHT22;9930;49.240;8.548;2022-08-19T01:30:54;25.00;59.00
19567;DHT22;9930;49.240;8.548;2022-08-19T01:33:22;25.00;59.00
19567;DHT22;9930;49.240;8.548;2022-08-19T01:35:52;25.00;59.00
19567;DHT22;9930;49.240;8.548;2022-08-19T01:38:26;25.00;59.10
19567;DHT22;9930;49.240;8.548;2022-08-19T01:40:52;25.00;59.20
19567;DHT22;9930;49.240;8.548;2022-08-19T01:43:21;25.00;59.10
19567;DHT22;9930;49.240;8.548;2022-08-19T01:45:46;25.00;59.10
19567;DHT22;9930;49.240;8.548;2022-08-19T01:48:13;25.00;59.20
19567;DHT22;9930;49.240;8.548;2022-08-19T01:50:39;25.00;59.20
19567;DHT22;9930;49.240;8.548;2022-08-19T01:53:10;25.00;59.30
19567;DHT22;9930;49.240;8.548;2022-08-19T01:55:42;25.00;59.40
19567;DHT22;9930;49.240;8.548;2022-08-19T01:58:13;25.00;59.40
19567;DHT22;9930;49.240;8.548;2022-08-19T02:00:42;25.00;59.40
19567;DHT22;9930;49.240;8.548;2022-08-19T02:03:09;25.00;59.40
19567;DHT22;9930;49.240;8.548;2022-08-19T02:05:39;25.00;59.40
19567;DHT22;9930;49.240;8.548;2022-08-19T02:08:09;25.00;59.40
19567;DHT22;9930;49.240;8.548;2022-08-19T02:10:40;25.00;59.50
19567;DHT22;9930;49.240;8.548;2022-08-19T02:13:09;25.00;59.50
19567;DHT22;9930;49.240;8.548;2022-08-19T02:15:38;25.00;59.50
19567;DHT22;9930;49.240;8.548;2022-08-19T02:18:08;25.00;59.50
19567;DHT22;9930;49.240;8.548;2022-08-19T02:20:39;25.00;59.50
19567;DHT22;9930;49.240;8.548;2022-08-19T02:23:10;25.00;59.50
19567;DHT22;9930;49.240;8.548;2022-08-19T02:25:40;25.00;59.40
19567;DHT22;9930;49.240;8.548;2022-08-19T02:28:08;25.00;59.40
19567;DHT22;9930;49.240;8.548;2022-08-19T02:30:40;25.00;59.50
19567;DHT22;9930;49.240;8.548;2022-08-19T02:33:11;25.00;59.60
19567;DHT22;9930;49.240;8.548;2022-08-19T02:35:43;24.90;59.60
19567;DHT22;9930;49.240;8.548;2022-08-19T02:38:12;24.90;59.60
19567;DHT22;9930;49.240;8.548;2022-08-19T02:41:07;24.90;59.60
19567;DHT22;9930;49.240;8.548;2022-08-19T02:43:38;24.90;59.60
19567;DHT22;9930;49.240;8.548;2022-08-19T02:46:21;24.90;59.60
19567;DHT22;9930;49.240;8.548;2022-08-19T02:48:51;24.90;59.70
19567;DHT22;9930;49.240;8.548;2022-08-19T02:51:40;24.90;59.70
19567;DHT22;9930;49.240;8.548;2022-08-19T02:54:12;24.80;59.80
19567;DHT22;9930;49.240;8.548;2022-08-19T02:56:40;24.80;59.70
19567;DHT22;9930;49.240;8.548;2022-08-19T02:59:08;24.80;59.70
19567;DHT22;9930;49.240;8.548;2022-08-19T03:01:39;24.80;59.70
19567;DHT22;9930;49.240;8.548;2022-08-19T03:04:15;24.80;59.80
19567;DHT22;9930;49.240;8.548;2022-08-19T03:06:43;24.80;60.00
19567;DHT22;9930;49.240;8.548;2022-08-19T03:09:11;24.80;59.80
19567;DHT22;9930;49.240;8.548;2022-08-19T03:11:42;24.80;59.90
19567;DHT22;9930;49.240;8.548;2022-08-19T03:14:09;24.70;59.90
19567;DHT22;9930;49.240;8.548;2022-08-19T03:16:45;24.70;59.90
19567;DHT22;9930;49.240;8.548;2022-08-19T03:19:19;24.70;60.00
19567;DHT22;9930;49.240;8.548;2022-08-19T03:21:48;24.60;60.00
19567;DHT22;9930;49.240;8.548;2022-08-19T03:24:15;24.60;60.10
19567;DHT22;9930;49.240;8.548;2022-08-19T03:26:51;24.60;60.10
19567;DHT22;9930;49.240;8.548;2022-08-19T03:29:23;24.60;60.20
19567;DHT22;9930;49.240;8.548;2022-08-19T03:31:51;24.50;60.20
19567;DHT22;9930;49.240;8.548;2022-08-19T03:34:20;24.50;60.30
19567;DHT22;9930;49.240;8.548;2022-08-19T03:36:54;24.50;60.40
19567;DHT22;9930;49.240;8.548;2022-08-19T03:39:24;24.50;60.40
19567;DHT22;9930;49.240;8.548;2022-08-19T03:41:54;24.50;60.40
19567;DHT22;9930;49.240;8.548;2022-08-19T03:44:28;24.50;60.50
19567;DHT22;9930;49.240;8.548;2022-08-19T03:46:57;24.50;60.50
19567;DHT22;9930;49.240;8.548;2022-08-19T03:49:27;24.40;60.50
19567;DHT22;9930;49.240;8.548;2022-08-19T03:52:00;24.40;60.50
19567;DHT22;9930;49.240;8.548;2022-08-19T03:54:27;24.40;60.50
19567;DHT22;9930;49.240;8.548;2022-08-19T03:56:57;24.40;60.60
19567;DHT22;9930;49.240;8.548;2022-08-19T03:59:31;24.40;60.70
19567;DHT22;9930;49.240;8.548;2022-08-19T04:02:00;24.40;60.80
19567;DHT22;9930;49.240;8.548;2022-08-19T04:04:30;24.30;60.70
19567;DHT22;9930;49.240;8.548;2022-08-19T04:06:56;24.30;60.80
19567;DHT22;9930;49.240;8.548;2022-08-19T04:09:26;24.30;60.90
19567;DHT22;9930;49.240;8.548;2022-08-19T04:11:56;24.30;60.90
19567;DHT22;9930;49.240;8.548;2022-08-19T04:14:28;24.30;61.00
19567;DHT22;9930;49.240;8.548;2022-08-19T04:17:00;24.20;61.10
19567;DHT22;9930;49.240;8.548;2022-08-19T04:19:30;24.20;61.10
19567;DHT22;9930;49.240;8.548;2022-08-19T04:22:05;24.20;61.10
19567;DHT22;9930;49.240;8.548;2022-08-19T04:24:36;24.20;61.20
19567;DHT22;9930;49.240;8.548;2022-08-19T04:27:02;24.20;61.20
19567;DHT22;9930;49.240;8.548;2022-08-19T04:29:29;24.20;61.30
19567;DHT22;9930;49.240;8.548;2022-08-19T04:31:58;24.10;61.20
19567;DHT22;9930;49.240;8.548;2022-08-19T04:34:26;24.10;61.30
19567;DHT22;9930;49.240;8.548;2022-08-19T04:36:55;24.10;61.30
19567;DHT22;9930;49.240;8.548;2022-08-19T04:39:29;24.10;61.40
19567;DHT22;9930;49.240;8.548;2022-08-19T04:42:17;24.10;61.40
19567;DHT22;9930;49.240;8.548;2022-08-19T04:45:03;24.10;61.40
19567;DHT22;9930;49.240;8.548;2022-08-19T04:47:32;24.10;61.40
19567;DHT22;9930;49.240;8.548;2022-08-19T04:49:58;24.10;61.50
19567;DHT22;9930;49.240;8.548;2022-08-19T04:52:24;24.10;61.50
19567;DHT22;9930;49.240;8.548;2022-08-19T04:54:50;24.10;61.60
19567;DHT22;9930;49.240;8.548;2022-08-19T04:57:16;24.10;61.60
19567;DHT22;9930;49.240;8.548;2022-08-19T04:59:42;24.10;62.40
19567;DHT22;9930;49.240;8.548;2022-08-19T05:02:10;24.10;61.80
19567;DHT22;9930;49.240;8.548;2022-08-19T05:04:37;24.10;61.80
19567;DHT22;9930;49.240;8.548;2022-08-19T05:07:08;24.10;61.80
19567;DHT22;9930;49.240;8.548;2022-08-19T05:09:38;24.20;62.00
19567;DHT22;9930;49.240;8.548;2022-08-19T05:12:08;24.20;61.90
19567;DHT22;9930;49.240;8.548;2022-08-19T05:14:38;24.20;61.90
19567;DHT22;9930;49.240;8.548;2022-08-19T05:17:08;24.20;62.00
19567;DHT22;9930;49.240;8.548;2022-08-19T05:19:38;24.30;62.00
19567;DHT22;9930;49.240;8.548;2022-08-19T05:22:22;24.30;62.00
19567;DHT22;9930;49.240;8.548;2022-08-19T05:25:01;24.40;62.00
19567;DHT22;9930;49.240;8.548;2022-08-19T05:27:38;24.40;61.90
19567;DHT22;9930;49.240;8.548;2022-08-19T05:30:10;24.50;61.80
19567;DHT22;9930;49.240;8.548;2022-08-19T05:32:39;24.50;62.60
19567;DHT22;9930;49.240;8.548;2022-08-19T05:35:06;24.60;61.80
19567;DHT22;9930;49.240;8.548;2022-08-19T05:37:33;24.60;61.70
19567;DHT22;9930;49.240;8.548;2022-08-19T05:40:03;24.60;61.70
19567;DHT22;9930;49.240;8.548;2022-08-19T05:42:37;24.70;61.80
19567;DHT22;9930;49.240;8.548;2022-08-19T05:45:11;24.70;61.60
19567;DHT22;9930;49.240;8.548;2022-08-19T05:47:43;24.80;61.60
19567;DHT22;9930;49.240;8.548;2022-08-19T05:50:15;24.80;61.50
19567;DHT22;9930;49.240;8.548;2022-08-19T05:52:43;24.90;61.30
19567;DHT22;9930;49.240;8.548;2022-08-19T05:55:10;24.90;61.20
19567;DHT22;9930;49.240;8.548;2022-08-19T05:57:41;24.90;61.10
19567;DHT22;9930;49.240;8.548;2022-08-19T06:00:11;24.90;61.10
19567;DHT22;9930;49.240;8.548;2022-08-19T06:02:39;24.90;61.10
19567;DHT22;9930;49.240;8.548;2022-08-19T06:05:08;24.90;61.10
19567;DHT22;9930;49.240;8.548;2022-08-19T06:07:37;24.90;61.10
19567;DHT22;9930;49.240;8.548;2022-08-19T06:10:08;24.90;61.10
19567;DHT22;9930;49.240;8.548;2022-08-19T06:12:39;24.90;61.00
19567;DHT22;9930;49.240;8.548;2022-08-19T06:15:09;25.00;61.10
19567;DHT22;9930;49.240;8.548;2022-08-19T06:17:38;25.00;61.00
19567;DHT22;9930;49.240;8.548;2022-08-19T06:20:11;25.00;61.00
19567;DHT22;9930;49.240;8.548;2022-08-19T06:22:46;25.00;61.00
19567;DHT22;9930;49.240;8.548;2022-08-19T06:25:17;25.00;61.00
19567;DHT22;9930;49.240;8.548;2022-08-19T06:27:46;25.00;61.00
19567;DHT22;9930;49.240;8.548;2022-08-19T06:30:12;25.10;61.00
19567;DHT22;9930;49.240;8.548;2022-08-19T06:32:38;25.10;60.90
19567;DHT22;9930;49.240;8.548;2022-08-19T06:35:08;25.10;60.90
19567;DHT22;9930;49.240;8.548;2022-08-19T06:37:37;25.20;61.00
19567;DHT22;9930;49.240;8.548;2022-08-19T06:40:06;25.20;61.00
19567;DHT22;9930;49.240;8.548;2022-08-19T06:42:40;25.20;60.90
19567;DHT22;9930;49.240;8.548;2022-08-19T06:45:08;25.20;60.80
19567;DHT22;9930;49.240;8.548;2022-08-19T06:47:38;25.30;60.80
19567;DHT22;9930;49.240;8.548;2022-08-19T06:50:08;25.30;60.60
19567;DHT22;9930;49.240;8.548;2022-08-19T06:52:38;25.30;60.40
19567;DHT22;9930;49.240;8.548;2022-08-19T06:55:08;25.30;60.40
19567;DHT22;9930;49.240;8.548;2022-08-19T06:57:36;25.30;60.40
19567;DHT22;9930;49.240;8.548;2022-08-19T07:00:08;25.40;60.50
19567;DHT22;9930;49.240;8.548;2022-08-19T07:02:42;25.40;60.50
19567;DHT22;9930;49.240;8.548;2022-08-19T07:05:09;25.40;60.60
19567;DHT22;9930;49.240;8.548;2022-08-19T07:07:38;25.50;60.70
19567;DHT22;9930;49.240;8.548;2022-08-19T07:10:07;25.60;60.60
19567;DHT22;9930;49.240;8.548;2022-08-19T07:12:41;25.70;60.40
19567;DHT22;9930;49.240;8.548;2022-08-19T07:15:08;25.70;60.10
19567;DHT22;9930;49.240;8.548;2022-08-19T07:17:38;25.70;59.90
19567;DHT22;9930;49.240;8.548;2022-08-19T07:20:09;25.80;60.00
19567;DHT22;9930;49.240;8.548;2022-08-19T07:22:39;25.80;60.00
19567;DHT22;9930;49.240;8.548;2022-08-19T07:25:09;25.90;60.00
19567;DHT22;9930;49.240;8.548;2022-08-19T07:27:38;26.00;60.00
19567;DHT22;9930;49.240;8.548;2022-08-19T07:30:12;26.00;59.80
19567;DHT22;9930;49.240;8.548;2022-08-19T07:32:42;26.00;59.50
19567;DHT22;9930;49.240;8.548;2022-08-19T07:35:09;26.00;59.60
19567;DHT22;9930;49.240;8.548;2022-08-19T07:37:40;26.10;59.70
19567;DHT22;9930;49.240;8.548;2022-08-19T07:40:09;26.10;59.50
19567;DHT22;9930;49.240;8.548;2022-08-19T07:42:42;26.20;59.60
19567;DHT22;9930;49.240;8.548;2022-08-19T07:45:08;26.20;59.40
19567;DHT22;9930;49.240;8.548;2022-08-19T07:47:38;26.20;59.50
19567;DHT22;9930;49.240;8.548;2022-08-19T07:50:10;26.20;59.40
19567;DHT22;9930;49.240;8.548;2022-08-19T07:52:40;26.30;59.30
19567;DHT22;9930;49.240;8.548;2022-08-19T07:55:10;26.30;59.20
19567;DHT22;9930;49.240;8.548;2022-08-19T07:57:38;26.30;59.20
19567;DHT22;9930;49.240;8.548;2022-08-19T08:00:14;26.40;59.20
19567;DHT22;9930;49.240;8.548;2022-08-19T08:02:43;26.30;59.00
19567;DHT22;9930;49.240;8.548;2022-08-19T08:05:09;26.40;59.20
19567;DHT22;9930;49.240;8.548;2022-08-19T08:08:01;26.40;59.10
19567;DHT22;9930;49.240;8.548;2022-08-19T08:10:46;26.40;58.80
19567;DHT22;9930;49.240;8.548;2022-08-19T08:13:12;26.50;59.00
19567;DHT22;9930;49.240;8.548;2022-08-19T08:15:38;26.50;58.90
19567;DHT22;9930;49.240;8.548;2022-08-19T08:18:08;26.50;58.90
19567;DHT22;9930;49.240;8.548;2022-08-19T08:20:34;26.60;58.90
19567;DHT22;9930;49.240;8.548;2022-08-19T08:23:06;26.60;59.10
19567;DHT22;9930;49.240;8.548;2022-08-19T08:25:51;26.70;59.20
19567;DHT22;9930;49.240;8.548;2022-08-19T08:28:20;26.80;58.90
19567;DHT22;9930;49.240;8.548;2022-08-19T08:30:50;26.90;58.90
19567;DHT22;9930;49.240;8.548;2022-08-19T08:33:20;26.90;58.70
19567;DHT22;9930;49.240;8.548;2022-08-19T08:35:48;27.00;58.70
19567;DHT22;9930;49.240;8.548;2022-08-19T08:38:14;27.10;58.80
19567;DHT22;9930;49.240;8.548;2022-08-19T08:40:56;27.30;59.00
19567;DHT22;9930;49.240;8.548;2022-08-19T08:43:38;27.40;58.40
19567;DHT22;9930;49.240;8.548;2022-08-19T08:46:13;27.70;58.80
19567;DHT22;9930;49.240;8.548;2022-08-19T08:52:15;28.00;57.80
19567;DHT22;9930;49.240;8.548;2022-08-19T08:54:48;28.30;58.10
19567;DHT22;9930;49.240;8.548;2022-08-19T08:57:35;28.50;58.00
19567;DHT22;9930;49.240;8.548;2022-08-19T09:00:24;28.70;57.00
19567;DHT22;9930;49.240;8.548;2022-08-19T09:02:59;28.90;56.10
19567;DHT22;9930;49.240;8.548;2022-08-19T09:11:17;29.40;54.80
19567;DHT22;9930;49.240;8.548;2022-08-19T09:16:37;29.70;54.30
19567;DHT22;9930;49.240;8.548;2022-08-19T09:19:09;29.70;53.80
19567;DHT22;9930;49.240;8.548;2022-08-19T09:21:41;29.70;53.70
19567;DHT22;9930;49.240;8.548;2022-08-19T09:24:08;29.70;53.10
19567;DHT22;9930;49.240;8.548;2022-08-19T09:26:38;29.70;53.00
19567;DHT22;9930;49.240;8.548;2022-08-19T09:29:08;29.70;52.90
19567;DHT22;9930;49.240;8.548;2022-08-19T09:31:38;29.70;52.70
19567;DHT22;9930;49.240;8.548;2022-08-19T09:34:07;29.70;52.70
19567;DHT22;9930;49.240;8.548;2022-08-19T09:36:36;29.80;52.70
19567;DHT22;9930;49.240;8.548;2022-08-19T09:39:08;29.80;52.60
19567;DHT22;9930;49.240;8.548;2022-08-19T09:41:38;29.80;52.10
19567;DHT22;9930;49.240;8.548;2022-08-19T09:44:07;29.90;52.20
19567;DHT22;9930;49.240;8.548;2022-08-19T09:46:38;29.90;52.30
19567;DHT22;9930;49.240;8.548;2022-08-19T09:49:08;30.00;52.10
19567;DHT22;9930;49.240;8.548;2022-08-19T09:51:38;30.00;51.50
19567;DHT22;9930;49.240;8.548;2022-08-19T09:54:08;30.10;51.60
19567;DHT22;9930;49.240;8.548;2022-08-19T09:56:38;30.10;51.70
19567;DHT22;9930;49.240;8.548;2022-08-19T09:59:08;30.20;51.50
19567;DHT22;9930;49.240;8.548;2022-08-19T10:01:41;30.20;51.60
19567;DHT22;9930;49.240;8.548;2022-08-19T10:04:08;30.30;51.30
19567;DHT22;9930;49.240;8.548;2022-08-19T10:06:38;30.30;51.30
19567;DHT22;9930;49.240;8.548;2022-08-19T10:09:11;30.30;51.10
19567;DHT22;9930;49.240;8.548;2022-08-19T10:11:41;30.30;50.50
19567;DHT22;9930;49.240;8.548;2022-08-19T10:14:08;30.40;50.60
19567;DHT22;9930;49.240;8.548;2022-08-19T10:16:38;30.40;50.60
19567;DHT22;9930;49.240;8.548;2022-08-19T10:19:10;30.40;50.40
19567;DHT22;9930;49.240;8.548;2022-08-19T10:21:39;30.40;50.10
19567;DHT22;9930;49.240;8.548;2022-08-19T10:24:08;30.50;50.60
19567;DHT22;9930;49.240;8.548;2022-08-19T10:26:38;30.60;50.40
19567;DHT22;9930;49.240;8.548;2022-08-19T10:29:10;30.70;49.80
19567;DHT22;9930;49.240;8.548;2022-08-19T10:31:42;30.70;49.80
19567;DHT22;9930;49.240;8.548;2022-08-19T10:34:08;30.70;49.40
19567;DHT22;9930;49.240;8.548;2022-08-19T10:36:38;30.80;49.30
19567;DHT22;9930;49.240;8.548;2022-08-19T10:39:09;30.80;49.20
19567;DHT22;9930;49.240;8.548;2022-08-19T10:41:39;30.80;48.90
19567;DHT22;9930;49.240;8.548;2022-08-19T10:44:11;30.80;48.90
19567;DHT22;9930;49.240;8.548;2022-08-19T10:46:41;30.80;48.70
19567;DHT22;9930;49.240;8.548;2022-08-19T10:49:11;30.80;48.10
19567;DHT22;9930;49.240;8.548;2022-08-19T10:51:39;30.80;48.20
19567;DHT22;9930;49.240;8.548;2022-08-19T10:54:24;30.80;48.20
19567;DHT22;9930;49.240;8.548;2022-08-19T10:57:10;30.70;48.50
19567;DHT22;9930;49.240;8.548;2022-08-19T10:59:38;30.70;48.80
19567;DHT22;9930;49.240;8.548;2022-08-19T11:02:10;30.80;48.80
19567;DHT22;9930;49.240;8.548;2022-08-19T11:04:39;30.80;48.90
19567;DHT22;9930;49.240;8.548;2022-08-19T11:07:08;30.80;48.80
19567;DHT22;9930;49.240;8.548;2022-08-19T11:09:41;30.90;48.80
19567;DHT22;9930;49.240;8.548;2022-08-19T11:12:09;31.00;48.50
19567;DHT22;9930;49.240;8.548;2022-08-19T11:14:40;31.10;48.50
19567;DHT22;9930;49.240;8.548;2022-08-19T11:17:08;31.20;48.20
19567;DHT22;9930;49.240;8.548;2022-08-19T11:19:41;31.30;48.10
19567;DHT22;9930;49.240;8.548;2022-08-19T11:22:09;31.30;47.90
19567;DHT22;9930;49.240;8.548;2022-08-19T11:24:38;31.40;47.50
19567;DHT22;9930;49.240;8.548;2022-08-19T11:27:09;31.30;46.90
19567;DHT22;9930;49.240;8.548;2022-08-19T11:29:38;31.30;46.70
19567;DHT22;9930;49.240;8.548;2022-08-19T11:32:10;31.30;46.80
19567;DHT22;9930;49.240;8.548;2022-08-19T11:34:38;31.30;46.90
19567;DHT22;9930;49.240;8.548;2022-08-19T11:37:08;31.30;47.00
19567;DHT22;9930;49.240;8.548;2022-08-19T11:39:38;31.30;46.80
19567;DHT22;9930;49.240;8.548;2022-08-19T11:42:11;31.40;46.60
19567;DHT22;9930;49.240;8.548;2022-08-19T11:44:55;31.40;46.30
19567;DHT22;9930;49.240;8.548;2022-08-19T11:47:21;31.50;46.70
19567;DHT22;9930;49.240;8.548;2022-08-19T11:49:47;31.60;46.40
19567;DHT22;9930;49.240;8.548;2022-08-19T11:52:13;31.60;45.70
19567;DHT22;9930;49.240;8.548;2022-08-19T11:54:41;31.60;45.60
19567;DHT22;9930;49.240;8.548;2022-08-19T11:57:08;31.60;45.80
19567;DHT22;9930;49.240;8.548;2022-08-19T11:59:38;31.60;45.50
19567;DHT22;9930;49.240;8.548;2022-08-19T12:02:08;31.60;45.00
19567;DHT22;9930;49.240;8.548;2022-08-19T12:04:38;31.60;44.80
19567;DHT22;9930;49.240;8.548;2022-08-19T12:07:08;31.70;44.60
19567;DHT22;9930;49.240;8.548;2022-08-19T12:09:38;31.70;44.80
19567;DHT22;9930;49.240;8.548;2022-08-19T12:12:06;31.80;44.60
19567;DHT22;9930;49.240;8.548;2022-08-19T12:14:34;31.80;43.90
19567;DHT22;9930;49.240;8.548;2022-08-19T12:17:07;31.90;44.20
19567;DHT22;9930;49.240;8.548;2022-08-19T12:19:38;31.90;43.90
19567;DHT22;9930;49.240;8.548;2022-08-19T12:22:08;32.00;43.40
19567;DHT22;9930;49.240;8.548;2022-08-19T12:24:37;32.10;43.00
19567;DHT22;9930;49.240;8.548;2022-08-19T12:27:08;32.10;42.60
19567;DHT22;9930;49.240;8.548;2022-08-19T12:29:44;32.10;42.40
19567;DHT22;9930;49.240;8.548;2022-08-19T12:32:12;32.20;42.00
19567;DHT22;9930;49.240;8.548;2022-08-19T12:34:39;32.10;41.70
19567;DHT22;9930;49.240;8.548;2022-08-19T12:37:08;32.10;41.80
19567;DHT22;9930;49.240;8.548;2022-08-19T12:39:41;32.10;41.30
19567;DHT22;9930;49.240;8.548;2022-08-19T12:42:10;32.10;41.60
19567;DHT22;9930;49.240;8.548;2022-08-19T12:44:40;32.10;41.70
19567;DHT22;9930;49.240;8.548;2022-08-19T12:47:11;32.10;41.90
19567;DHT22;9930;49.240;8.548;2022-08-19T12:49:39;32.20;42.20
19567;DHT22;9930;49.240;8.548;2022-08-19T12:52:09;32.20;41.90
19567;DHT22;9930;49.240;8.548;2022-08-19T12:54:38;32.20;41.60
19567;DHT22;9930;49.240;8.548;2022-08-19T12:57:09;32.20;40.80
19567;DHT22;9930;49.240;8.548;2022-08-19T12:59:38;32.20;41.00
19567;DHT22;9930;49.240;8.548;2022-08-19T13:02:08;32.30;40.90
19567;DHT22;9930;49.240;8.548;2022-08-19T13:04:41;32.30;40.70
19567;DHT22;9930;49.240;8.548;2022-08-19T13:07:08;32.30;40.70
19567;DHT22;9930;49.240;8.548;2022-08-19T13:09:39;32.30;40.40
19567;DHT22;9930;49.240;8.548;2022-08-19T13:12:09;32.30;40.20
19567;DHT22;9930;49.240;8.548;2022-08-19T13:14:39;32.20;40.00
19567;DHT22;9930;49.240;8.548;2022-08-19T13:17:08;32.20;40.20
19567;DHT22;9930;49.240;8.548;2022-08-19T13:19:38;32.10;39.80
19567;DHT22;9930;49.240;8.548;2022-08-19T13:22:08;32.10;39.90
19567;DHT22;9930;49.240;8.548;2022-08-19T13:24:38;32.10;40.20
19567;DHT22;9930;49.240;8.548;2022-08-19T13:27:08;32.10;40.10
19567;DHT22;9930;49.240;8.548;2022-08-19T13:29:39;32.20;39.90
19567;DHT22;9930;49.240;8.548;2022-08-19T13:32:24;32.20;39.60
19567;DHT22;9930;49.240;8.548;2022-08-19T13:35:09;32.20;39.90
19567;DHT22;9930;49.240;8.548;2022-08-19T13:37:38;32.10;39.60
19567;DHT22;9930;49.240;8.548;2022-08-19T13:40:19;32.10;40.10
19567;DHT22;9930;49.240;8.548;2022-08-19T13:42:54;32.10;39.20
19567;DHT22;9930;49.240;8.548;2022-08-19T13:45:23;32.10;39.20
19567;DHT22;9930;49.240;8.548;2022-08-19T13:47:51;32.10;39.00
19567;DHT22;9930;49.240;8.548;2022-08-19T13:50:23;32.10;39.00
19567;DHT22;9930;49.240;8.548;2022-08-19T13:52:55;32.10;39.00
19567;DHT22;9930;49.240;8.548;2022-08-19T13:55:24;32.20;38.90
19567;DHT22;9930;49.240;8.548;2022-08-19T13:57:58;32.20;39.10
19567;DHT22;9930;49.240;8.548;2022-08-19T14:00:29;32.20;39.00
19567;DHT22;9930;49.240;8.548;2022-08-19T14:03:03;32.20;39.10
19567;DHT22;9930;49.240;8.548;2022-08-19T14:05:38;32.30;38.90
19567;DHT22;9930;49.240;8.548;2022-08-19T14:08:08;32.30;38.90
19567;DHT22;9930;49.240;8.548;2022-08-19T14:10:38;32.30;38.80
19567;DHT22;9930;49.240;8.548;2022-08-19T14:13:09;32.30;38.40
19567;DHT22;9930;49.240;8.548;2022-08-19T14:15:38;32.40;38.40
19567;DHT22;9930;49.240;8.548;2022-08-19T14:18:08;32.40;38.10
19567;DHT22;9930;49.240;8.548;2022-08-19T14:20:38;32.40;38.00
19567;DHT22;9930;49.240;8.548;2022-08-19T14:23:08;32.50;38.20
19567;DHT22;9930;49.240;8.548;2022-08-19T14:25:40;32.50;38.30
19567;DHT22;9930;49.240;8.548;2022-08-19T14:28:09;32.50;37.40
19567;DHT22;9930;49.240;8.548;2022-08-19T14:30:41;32.50;38.10
19567;DHT22;9930;49.240;8.548;2022-08-19T14:33:08;32.50;37.80
19567;DHT22;9930;49.240;8.548;2022-08-19T14:35:37;32.60;38.10
19567;DHT22;9930;49.240;8.548;2022-08-19T14:38:12;32.70;38.10
19567;DHT22;9930;49.240;8.548;2022-08-19T14:40:44;32.70;37.80
19567;DHT22;9930;49.240;8.548;2022-08-19T14:43:11;32.70;37.80
19567;DHT22;9930;49.240;8.548;2022-08-19T14:45:39;32.70;37.60
19567;DHT22;9930;49.240;8.548;2022-08-19T14:48:08;32.70;37.50
19567;DHT22;9930;49.240;8.548;2022-08-19T14:50:38;32.70;37.50
19567;DHT22;9930;49.240;8.548;2022-08-19T14:53:08;32.70;37.40
19567;DHT22;9930;49.240;8.548;2022-08-19T14:55:41;32.70;37.20
19567;DHT22;9930;49.240;8.548;2022-08-19T14:58:15;32.70;37.00
19567;DHT22;9930;49.240;8.548;2022-08-19T15:00:41;32.70;37.00
19567;DHT22;9930;49.240;8.548;2022-08-19T15:03:08;32.70;37.00
19567;DHT22;9930;49.240;8.548;2022-08-19T15:05:38;32.70;36.80
19567;DHT22;9930;49.240;8.548;2022-08-19T15:08:08;32.70;37.00
19567;DHT22;9930;49.240;8.548;2022-08-19T15:10:38;32.70;36.90
19567;DHT22;9930;49.240;8.548;2022-08-19T15:13:13;32.60;37.00
19567;DHT22;9930;49.240;8.548;2022-08-19T15:15:39;32.60;36.90
19567;DHT22;9930;49.240;8.548;2022-08-19T15:18:08;32.60;37.20
19567;DHT22;9930;49.240;8.548;2022-08-19T15:20:39;32.50;37.10
19567;DHT22;9930;49.240;8.548;2022-08-19T15:23:15;32.50;37.40
19567;DHT22;9930;49.240;8.548;2022-08-19T15:25:42;32.50;37.40
19567;DHT22;9930;49.240;8.548;2022-08-19T15:28:09;32.50;37.40
19567;DHT22;9930;49.240;8.548;2022-08-19T15:30:39;32.50;37.60
19567;DHT22;9930;49.240;8.548;2022-08-19T15:33:13;32.50;37.60
19567;DHT22;9930;49.240;8.548;2022-08-19T15:35:40;32.50;37.50
19567;DHT22;9930;49.240;8.548;2022-08-19T15:38:09;32.50;37.50
19567;DHT22;9930;49.240;8.548;2022-08-19T15:40:40;32.50;37.40
19567;DHT22;9930;49.240;8.548;2022-08-19T15:43:08;32.50;37.10
19567;DHT22;9930;49.240;8.548;2022-08-19T15:45:40;32.50;37.00
19567;DHT22;9930;49.240;8.548;2022-08-19T15:48:09;32.50;37.00
19567;DHT22;9930;49.240;8.548;2022-08-19T15:50:39;32.50;37.00
19567;DHT22;9930;49.240;8.548;2022-08-19T15:53:10;32.50;37.00
19567;DHT22;9930;49.240;8.548;2022-08-19T15:55:43;32.50;36.90
19567;DHT22;9930;49.240;8.548;2022-08-19T15:58:12;32.40;36.70
19567;DHT22;9930;49.240;8.548;2022-08-19T16:00:59;32.50;37.00
19567;DHT22;9930;49.240;8.548;2022-08-19T16:03:47;32.40;37.10
19567;DHT22;9930;49.240;8.548;2022-08-19T16:06:32;32.40;37.10
19567;DHT22;9930;49.240;8.548;2022-08-19T16:09:01;32.40;37.30
19567;DHT22;9930;49.240;8.548;2022-08-19T16:11:30;32.40;37.50
19567;DHT22;9930;49.240;8.548;2022-08-19T16:13:59;32.30;37.50
19567;DHT22;9930;49.240;8.548;2022-08-19T16:16:30;32.30;37.50
19567;DHT22;9930;49.240;8.548;2022-08-19T16:19:02;32.30;37.50
19567;DHT22;9930;49.240;8.548;2022-08-19T16:21:38;32.30;37.50